createdAt,value
2022-12-31T00:01:00.592Z,97919.81
2022-12-31T00:04:03.714Z,97923.59
2022-12-31T00:07:06.473Z,97941.25
2022-12-31T00:10:10.993Z,97940.56
2022-12-31T00:13:14.626Z,97945.75
2022-12-31T00:16:19.488Z,97946.94
2022-12-31T00:19:22.450Z,97944.84
2022-12-31T00:22:25.181Z,97952.00
2022-12-31T00:25:29.544Z,97944.63
2022-12-31T00:28:32.707Z,97957.09
2022-12-31T00:31:37.670Z,97956.72
2022-12-31T00:34:40.385Z,97970.91
2022-12-31T00:37:43.003Z,97973.72
2022-12-31T00:40:47.393Z,97961.03
2022-12-31T00:43:50.688Z,97970.72
2022-12-31T00:46:53.941Z,97968.84
2022-12-31T00:49:56.587Z,97972.91
2022-12-31T00:52:59.285Z,97967.41
2022-12-31T00:56:05.240Z,97980.63
2022-12-31T00:59:07.885Z,97985.19
2022-12-31T01:02:10.670Z,97991.50
2022-12-31T01:05:13.562Z,97991.91
2022-12-31T01:08:16.222Z,98003.16
2022-12-31T01:11:22.256Z,97998.69
2022-12-31T01:14:25.355Z,98009.84
2022-12-31T01:17:28.222Z,98018.22
2022-12-31T01:20:31.633Z,98023.22
2022-12-31T01:23:34.800Z,98034.38
2022-12-31T01:26:39.496Z,98029.78
2022-12-31T01:29:42.142Z,98040.78
2022-12-31T01:32:44.797Z,98051.25
2022-12-31T01:35:48.020Z,98047.38
2022-12-31T01:38:51.533Z,98056.06
2022-12-31T01:41:55.537Z,98061.16
2022-12-31T01:44:58.216Z,98057.34
2022-12-31T01:48:01.673Z,98049.25
2022-12-31T01:51:06.136Z,98056.84
2022-12-31T01:54:11.744Z,98055.94
2022-12-31T01:57:16.839Z,98053.44
2022-12-31T02:00:19.629Z,98067.38
2022-12-31T02:03:24.106Z,98069.25
2022-12-31T02:06:33.403Z,98072.56
2022-12-31T02:09:39.868Z,98067.16
2022-12-31T02:12:43.970Z,98071.69
2022-12-31T02:15:57.745Z,98072.91
2022-12-31T02:19:19.638Z,98071.78
2022-12-31T02:22:37.358Z,98073.09
2022-12-31T02:26:06.057Z,98078.84
2022-12-31T02:29:38.890Z,98068.97
2022-12-31T02:32:54.016Z,98075.91
2022-12-31T02:35:59.991Z,98077.38
2022-12-31T02:39:05.120Z,98080.22
2022-12-31T02:42:07.818Z,98081.44
2022-12-31T02:45:13.218Z,98073.94
2022-12-31T02:48:29.522Z,98071.97
2022-12-31T02:51:40.495Z,98069.84
2022-12-31T02:54:49.099Z,98072.97
2022-12-31T02:57:56.630Z,98075.66
2022-12-31T03:01:17.537Z,98076.56
2022-12-31T03:04:36.263Z,98066.41
2022-12-31T03:07:41.629Z,98056.41
2022-12-31T03:10:44.241Z,98059.38
2022-12-31T03:13:45.931Z,98065.19
2022-12-31T03:16:49.116Z,98063.28
2022-12-31T03:20:11.480Z,98058.91
2022-12-31T03:23:16.826Z,98045.44
2022-12-31T03:26:18.524Z,98057.72
2022-12-31T03:29:21.149Z,98070.69
2022-12-31T03:32:26.296Z,98068.31
2022-12-31T03:35:32.414Z,98084.31
2022-12-31T03:38:35.227Z,98085.75
2022-12-31T03:41:37.877Z,98084.25
2022-12-31T03:44:40.506Z,98078.84
2022-12-31T03:47:43.174Z,98074.06
2022-12-31T03:50:47.558Z,98090.13
2022-12-31T03:53:50.206Z,98089.00
2022-12-31T03:56:58.244Z,98085.53
2022-12-31T04:00:03.332Z,98087.63
2022-12-31T04:03:05.991Z,98085.03
2022-12-31T04:06:10.203Z,98094.13
2022-12-31T04:09:13.167Z,98091.13
2022-12-31T04:12:15.882Z,98087.59
2022-12-31T04:15:21.282Z,98095.13
2022-12-31T04:18:23.950Z,98099.78
2022-12-31T04:21:34.641Z,98106.78
2022-12-31T04:24:38.217Z,98102.97
2022-12-31T04:27:41.378Z,98087.78
2022-12-31T04:30:44.412Z,98089.78
2022-12-31T04:33:47.067Z,98094.78
2022-12-31T04:36:51.463Z,98101.00
2022-12-31T04:39:54.147Z,98107.84
2022-12-31T04:42:56.798Z,98104.66
2022-12-31T04:45:59.550Z,98111.69
2022-12-31T04:49:02.783Z,98124.78
2022-12-31T04:52:06.821Z,98117.63
2022-12-31T04:55:09.791Z,98118.75
2022-12-31T04:58:12.700Z,98126.66
2022-12-31T05:01:16.090Z,98129.44
2022-12-31T05:04:18.819Z,98122.94
2022-12-31T05:07:23.111Z,98123.75
2022-12-31T05:10:25.765Z,98123.94
2022-12-31T05:13:33.153Z,98151.03
2022-12-31T05:16:36.817Z,98149.16
2022-12-31T05:19:39.479Z,98141.47
2022-12-31T05:22:43.485Z,98148.28
2022-12-31T05:25:47.807Z,98143.69
2022-12-31T05:28:50.942Z,98150.84
2022-12-31T05:31:53.609Z,98141.47
2022-12-31T05:34:56.906Z,98152.16
2022-12-31T05:38:02.130Z,98140.16
2022-12-31T05:41:07.380Z,98150.94
2022-12-31T05:44:11.830Z,98147.44
2022-12-31T05:47:14.610Z,98146.63
2022-12-31T05:50:17.568Z,98166.16
2022-12-31T05:53:21.665Z,98157.34
2022-12-31T05:56:24.683Z,98166.03
2022-12-31T05:59:27.753Z,98164.88
2022-12-31T06:02:30.473Z,98165.97
2022-12-31T06:05:33.138Z,98183.28
2022-12-31T06:08:37.230Z,98180.56
2022-12-31T06:11:39.890Z,98196.09
2022-12-31T06:14:45.720Z,98198.09
2022-12-31T06:17:48.685Z,98205.50
2022-12-31T06:20:51.717Z,98192.50
2022-12-31T06:23:56.025Z,98196.88
2022-12-31T06:26:58.753Z,98204.97
2022-12-31T06:30:01.777Z,98198.88
2022-12-31T06:33:04.433Z,98202.00
2022-12-31T06:36:09.380Z,98206.59
2022-12-31T06:39:13.424Z,98228.81
2022-12-31T06:42:16.118Z,98232.09
2022-12-31T06:45:18.895Z,98215.38
2022-12-31T06:48:21.642Z,98199.59
2022-12-31T06:51:24.345Z,98202.88
2022-12-31T06:54:28.372Z,98192.81
2022-12-31T06:57:31.436Z,98187.09
2022-12-31T07:00:34.813Z,98206.78
2022-12-31T07:03:42.631Z,98202.81
2022-12-31T07:06:53.394Z,98195.59
2022-12-31T07:10:03.534Z,98201.59
2022-12-31T07:13:25.538Z,98206.00
2022-12-31T07:16:37.725Z,98206.19
2022-12-31T07:19:55.540Z,98210.28
2022-12-31T07:23:00.828Z,98223.97
2022-12-31T07:26:10.206Z,98228.38
2022-12-31T07:29:20.384Z,98221.28
2022-12-31T07:32:33.186Z,98235.41
2022-12-31T07:35:42.957Z,98238.78
2022-12-31T07:38:54.450Z,98239.00
2022-12-31T07:42:06.145Z,98242.63
2022-12-31T07:45:17.693Z,98247.50
2022-12-31T07:48:25.063Z,98235.28
2022-12-31T07:51:28.538Z,98229.59
2022-12-31T07:54:31.180Z,98238.41
2022-12-31T07:57:43.816Z,98236.28
2022-12-31T08:00:46.949Z,98247.59
2022-12-31T08:03:57.119Z,98255.59
2022-12-31T08:07:12.356Z,98261.59
2022-12-31T08:10:20.624Z,98255.81
2022-12-31T08:13:24.945Z,98258.00
2022-12-31T08:16:28.216Z,98260.59
2022-12-31T08:19:33.134Z,98259.72
2022-12-31T08:22:54.760Z,98263.91
2022-12-31T08:26:16.571Z,98263.38
2022-12-31T08:29:34.137Z,98251.34
2022-12-31T08:32:44.113Z,98249.75
2022-12-31T08:36:00.050Z,98257.75
2022-12-31T08:39:11.601Z,98253.94
2022-12-31T08:42:23.095Z,98254.91
2022-12-31T08:45:33.278Z,98271.16
2022-12-31T08:48:41.506Z,98279.44
2022-12-31T08:51:44.254Z,98280.25
2022-12-31T08:54:47.768Z,98294.34
2022-12-31T08:58:04.000Z,98308.47
2022-12-31T09:01:09.505Z,98315.19
2022-12-31T09:04:19.893Z,98300.63
2022-12-31T09:07:30.112Z,98308.31
2022-12-31T09:10:39.825Z,98300.19
2022-12-31T09:14:01.941Z,98290.06
2022-12-31T09:17:14.534Z,98307.03
2022-12-31T09:20:23.973Z,98323.47
2022-12-31T09:23:28.279Z,98307.47
2022-12-31T09:26:45.517Z,98298.97
2022-12-31T09:29:55.435Z,98312.53
2022-12-31T09:33:06.143Z,98312.59
2022-12-31T09:36:20.197Z,98316.56
2022-12-31T09:39:30.515Z,98315.69
2022-12-31T09:43:00.895Z,98327.41
2022-12-31T09:46:25.950Z,98324.53
2022-12-31T09:50:11.141Z,98324.91
2022-12-31T09:53:38.643Z,98320.13
2022-12-31T09:56:46.917Z,98306.53
2022-12-31T09:59:58.997Z,98315.66
2022-12-31T10:03:26.485Z,98299.97
2022-12-31T10:06:44.634Z,98309.34
2022-12-31T10:10:01.029Z,98319.72
2022-12-31T10:13:25.960Z,98334.06
2022-12-31T10:16:59.576Z,98302.97
2022-12-31T10:20:17.063Z,98302.66
2022-12-31T10:23:47.070Z,98308.72
2022-12-31T10:27:14.127Z,98302.81
2022-12-31T10:30:19.134Z,98306.66
2022-12-31T10:33:39.261Z,98307.78
2022-12-31T10:36:53.790Z,98306.81
2022-12-31T10:40:08.355Z,98306.50
2022-12-31T10:44:01.261Z,98283.72
2022-12-31T10:47:26.276Z,98275.72
2022-12-31T10:50:58.607Z,98277.66
2022-12-31T10:54:27.704Z,98282.50
2022-12-31T10:58:07.636Z,98288.41
2022-12-31T11:01:18.661Z,98278.28
2022-12-31T11:04:57.945Z,98271.34
2022-12-31T11:08:27.235Z,98267.63
2022-12-31T11:11:36.640Z,98266.25
2022-12-31T11:15:00.962Z,98270.78
2022-12-31T11:18:14.707Z,98256.34
2022-12-31T11:21:28.490Z,98256.84
2022-12-31T11:24:43.935Z,98254.75
2022-12-31T11:28:00.517Z,98257.34
2022-12-31T11:31:16.422Z,98248.47
2022-12-31T11:34:45.278Z,98235.66
2022-12-31T11:37:50.221Z,98247.69
2022-12-31T11:41:01.191Z,98238.34
2022-12-31T11:44:16.070Z,98245.34
2022-12-31T11:48:28.387Z,98234.69
2022-12-31T11:51:37.820Z,98227.69
2022-12-31T11:54:53.428Z,98224.59
2022-12-31T11:58:00.181Z,98239.41
2022-12-31T12:01:10.047Z,98231.94
2022-12-31T12:04:14.152Z,98235.50
2022-12-31T12:07:17.576Z,98226.06
2022-12-31T12:10:29.092Z,98209.34
2022-12-31T12:13:36.694Z,98210.50
2022-12-31T12:16:39.482Z,98214.06
2022-12-31T12:19:46.579Z,98217.38
2022-12-31T12:22:51.555Z,98207.88
2022-12-31T12:25:54.874Z,98210.97
2022-12-31T12:29:01.739Z,98204.59
2022-12-31T12:32:06.283Z,98211.44
2022-12-31T12:35:21.035Z,98205.75
2022-12-31T12:38:24.650Z,98199.47
2022-12-31T12:41:27.720Z,98198.00
2022-12-31T12:44:30.833Z,98198.03
2022-12-31T12:47:34.922Z,98211.22
2022-12-31T12:50:43.310Z,98193.25
2022-12-31T12:53:54.310Z,98194.03
2022-12-31T12:57:06.510Z,98201.91
2022-12-31T13:00:17.870Z,98189.38
2022-12-31T13:04:23.735Z,98198.22
2022-12-31T13:07:29.011Z,98199.03
2022-12-31T13:10:49.500Z,98193.72
2022-12-31T13:13:58.753Z,98194.53
2022-12-31T13:17:09.994Z,98196.00
2022-12-31T13:20:20.222Z,98187.16
2022-12-31T13:23:34.894Z,98188.81
2022-12-31T13:26:48.426Z,98187.63
2022-12-31T13:29:52.462Z,98191.78
2022-12-31T13:33:02.465Z,98182.59
2022-12-31T13:36:08.789Z,98179.66
2022-12-31T13:39:18.690Z,98184.94
2022-12-31T13:42:26.418Z,98180.09
2022-12-31T13:45:34.272Z,98177.31
2022-12-31T13:48:45.406Z,98165.03
2022-12-31T13:51:50.169Z,98160.53
2022-12-31T13:55:00.532Z,98173.53
2022-12-31T13:58:11.939Z,98160.13
2022-12-31T14:01:19.537Z,98177.25
2022-12-31T14:04:28.375Z,98161.13
2022-12-31T14:07:45.197Z,98169.66
2022-12-31T14:11:01.727Z,98175.31
2022-12-31T14:14:16.053Z,98169.44
2022-12-31T14:17:26.551Z,98171.41
2022-12-31T14:20:41.045Z,98170.34
2022-12-31T14:23:53.457Z,98173.22
2022-12-31T14:27:01.918Z,98166.09
2022-12-31T14:30:07.239Z,98165.50
2022-12-31T14:33:22.456Z,98173.63
2022-12-31T14:36:35.115Z,98163.59
2022-12-31T14:39:49.849Z,98173.50
2022-12-31T14:43:07.297Z,98181.00
2022-12-31T14:46:21.335Z,98180.69
2022-12-31T14:49:37.567Z,98186.94
2022-12-31T14:52:50.858Z,98195.09
2022-12-31T14:56:02.428Z,98194.13
2022-12-31T14:59:26.629Z,98190.63
2022-12-31T15:02:31.859Z,98181.06
2022-12-31T15:05:36.978Z,98195.75
2022-12-31T15:09:04.016Z,98196.72
2022-12-31T15:12:24.500Z,98194.94
2022-12-31T15:15:58.722Z,98211.41
2022-12-31T15:19:48.423Z,98207.56
2022-12-31T15:22:52.421Z,98207.22
2022-12-31T15:25:59.729Z,98211.06
2022-12-31T15:29:05.336Z,98197.50
2022-12-31T15:32:19.920Z,98190.94
2022-12-31T15:35:27.849Z,98193.78
2022-12-31T15:38:36.466Z,98193.00
2022-12-31T15:42:03.130Z,98196.66
2022-12-31T15:45:08.801Z,98201.41
2022-12-31T15:48:19.022Z,98201.75
2022-12-31T15:51:26.477Z,98204.91
2022-12-31T15:54:37.089Z,98210.94
2022-12-31T15:57:42.457Z,98222.38
2022-12-31T16:00:58.411Z,98232.66
2022-12-31T16:04:06.139Z,98232.16
2022-12-31T16:07:12.520Z,98233.88
2022-12-31T16:10:20.066Z,98233.81
2022-12-31T16:13:25.549Z,98244.38
2022-12-31T16:16:30.378Z,98237.31
2022-12-31T16:19:37.084Z,98244.75
2022-12-31T16:22:43.520Z,98242.28
2022-12-31T16:25:46.930Z,98246.41
2022-12-31T16:28:52.421Z,98246.63
2022-12-31T16:31:55.649Z,98241.28
2022-12-31T16:34:59.943Z,98248.84
2022-12-31T16:38:13.855Z,98245.03
2022-12-31T16:41:19.733Z,98239.97
2022-12-31T16:44:27.345Z,98238.97
2022-12-31T16:47:34.548Z,98238.56
2022-12-31T16:50:38.863Z,98236.78
2022-12-31T16:53:42.898Z,98240.78
2022-12-31T16:56:45.751Z,98242.97
2022-12-31T16:59:53.145Z,98237.06
2022-12-31T17:03:04.850Z,98246.19
2022-12-31T17:06:16.497Z,98237.25
2022-12-31T17:09:21.268Z,98244.69
2022-12-31T17:12:24.924Z,98253.09
2022-12-31T17:15:30.040Z,98256.34
2022-12-31T17:18:37.893Z,98259.28
2022-12-31T17:21:48.648Z,98267.75
2022-12-31T17:24:52.560Z,98272.53
2022-12-31T17:27:58.929Z,98268.75
2022-12-31T17:31:25.705Z,98266.84
2022-12-31T17:34:33.654Z,98259.16
2022-12-31T17:37:37.723Z,98260.78
2022-12-31T17:40:50.981Z,98266.41
2022-12-31T17:43:58.214Z,98268.59
2022-12-31T17:47:02.716Z,98273.22
2022-12-31T17:50:20.702Z,98279.44
2022-12-31T17:53:25.455Z,98279.00
2022-12-31T17:56:28.188Z,98280.69
2022-12-31T17:59:33.518Z,98280.63
2022-12-31T18:02:36.285Z,98282.31
2022-12-31T18:05:39.070Z,98283.13
2022-12-31T18:08:43.109Z,98279.59
2022-12-31T18:11:46.406Z,98274.94
2022-12-31T18:14:49.033Z,98283.22
2022-12-31T18:17:51.941Z,98267.97
2022-12-31T18:20:57.853Z,98269.47
2022-12-31T18:27:05.288Z,98286.06
2022-12-31T18:30:09.988Z,98290.47
2022-12-31T18:33:16.767Z,98279.78
2022-12-31T18:36:21.991Z,98285.00
2022-12-31T18:39:25.990Z,98287.00
2022-12-31T18:42:29.679Z,98294.63
2022-12-31T18:45:32.428Z,98301.59
2022-12-31T18:48:37.001Z,98298.72
2022-12-31T18:51:41.653Z,98298.22
2022-12-31T18:54:48.757Z,98306.53
2022-12-31T18:57:53.933Z,98293.13
2022-12-31T19:00:58.961Z,98305.94
2022-12-31T19:04:05.516Z,98304.03
2022-12-31T19:07:10.412Z,98301.22
2022-12-31T19:10:17.368Z,98304.53
2022-12-31T19:13:23.589Z,98310.75
2022-12-31T19:16:28.780Z,98310.84
2022-12-31T19:19:35.186Z,98315.47
2022-12-31T19:22:42.153Z,98319.88
2022-12-31T19:25:49.637Z,98323.69
2022-12-31T19:28:55.823Z,98326.38
2022-12-31T19:32:02.662Z,98312.88
2022-12-31T19:35:09.463Z,98318.56
2022-12-31T19:38:19.203Z,98326.06
2022-12-31T19:41:25.644Z,98326.88
2022-12-31T19:44:30.485Z,98330.19
2022-12-31T19:47:35.394Z,98335.59
2022-12-31T19:50:42.328Z,98333.56
2022-12-31T19:53:47.584Z,98338.06
2022-12-31T19:56:54.188Z,98331.47
2022-12-31T19:59:58.968Z,98327.63
2022-12-31T20:03:04.251Z,98326.13
2022-12-31T20:06:11.607Z,98334.44
2022-12-31T20:09:16.745Z,98337.41
2022-12-31T20:12:24.288Z,98333.63
2022-12-31T20:15:29.995Z,98331.22
2022-12-31T20:18:34.632Z,98332.63
2022-12-31T20:21:39.729Z,98332.50
2022-12-31T20:24:44.418Z,98336.44
2022-12-31T20:27:50.658Z,98340.25
2022-12-31T20:30:55.435Z,98345.94
2022-12-31T20:34:00.109Z,98342.81
2022-12-31T20:37:04.808Z,98340.59
2022-12-31T20:40:12.047Z,98339.06
2022-12-31T20:43:18.047Z,98336.97
2022-12-31T20:46:25.354Z,98336.84
2022-12-31T20:50:00.710Z,98337.81
2022-12-31T20:52:54.247Z,98340.72
2022-12-31T20:55:59.023Z,98344.38
2022-12-31T20:59:05.847Z,98338.31
2022-12-31T21:02:29.541Z,98348.06
2022-12-31T21:05:40.752Z,98349.53
2022-12-31T21:08:46.280Z,98351.50
2022-12-31T21:12:07.703Z,98354.53
2022-12-31T21:15:14.212Z,98353.00
2022-12-31T21:18:19.587Z,98356.09
2022-12-31T21:21:24.909Z,98352.16
2022-12-31T21:24:30.322Z,98341.63
2022-12-31T21:27:35.180Z,98357.25
2022-12-31T21:30:42.795Z,98360.50
2022-12-31T21:33:47.839Z,98355.41
2022-12-31T21:36:52.581Z,98352.28
2022-12-31T21:39:57.331Z,98359.31
2022-12-31T21:43:03.959Z,98358.59
2022-12-31T21:46:10.557Z,98356.97
2022-12-31T21:49:15.189Z,98363.50
2022-12-31T21:52:30.718Z,98363.38
2022-12-31T21:55:52.047Z,98366.41
2022-12-31T21:59:14.838Z,98367.53
2022-12-31T22:02:37.994Z,98375.72
2022-12-31T22:05:50.374Z,98376.88
2022-12-31T22:08:58.951Z,98385.00
2022-12-31T22:12:03.951Z,98383.41
2022-12-31T22:15:15.224Z,98392.41
2022-12-31T22:18:22.509Z,98390.75
2022-12-31T22:21:28.319Z,98386.16
2022-12-31T22:24:33.272Z,98391.56
2022-12-31T22:27:39.407Z,98385.13
2022-12-31T22:30:44.321Z,98389.44
2022-12-31T22:33:50.713Z,98401.81
2022-12-31T22:36:55.820Z,98395.69
2022-12-31T22:40:00.423Z,98409.16
2022-12-31T22:43:05.105Z,98415.13
2022-12-31T22:46:11.993Z,98424.31
2022-12-31T22:49:20.612Z,98426.53
2022-12-31T22:52:25.781Z,98429.56
2022-12-31T22:55:32.829Z,98436.84
2022-12-31T22:58:38.323Z,98437.47
2022-12-31T23:01:43.394Z,98431.06
2022-12-31T23:04:50.256Z,98429.25
2022-12-31T23:07:55.218Z,98434.97
2022-12-31T23:11:06.157Z,98435.56
2022-12-31T23:14:33.246Z,98441.00
2022-12-31T23:17:54.705Z,98434.03
2022-12-31T23:21:20.542Z,98436.78
2022-12-31T23:24:28.184Z,98433.03
2022-12-31T23:27:33.122Z,98428.72
2022-12-31T23:30:41.614Z,98432.75
2022-12-31T23:33:47.009Z,98434.91
2022-12-31T23:36:55.246Z,98435.91
2022-12-31T23:40:00.408Z,98443.16
2022-12-31T23:43:06.574Z,98439.41
2022-12-31T23:46:12.574Z,98435.69
2022-12-31T23:49:17.419Z,98436.25
2022-12-31T23:52:24.013Z,98440.00
2022-12-31T23:55:30.764Z,98438.13
2022-12-31T23:58:37.479Z,98433.50
